sensor_id;sensor_type;location;lat;lon;timestamp;P1;durP1;ratioP1;P2;durP2;ratioP2
24137;SDS011;17947;50.672;6.076;2022-10-22T00:01:35;0.40;;;0.40;;
24137;SDS011;17947;50.672;6.076;2022-10-22T00:04:02;0.40;;;0.40;;
24137;SDS011;17947;50.672;6.076;2022-10-22T00:06:29;0.63;;;0.50;;
24137;SDS011;17947;50.672;6.076;2022-10-22T00:08:55;0.60;;;0.50;;
24137;SDS011;17947;50.672;6.076;2022-10-22T00:11:21;0.52;;;0.52;;
24137;SDS011;17947;50.672;6.076;2022-10-22T00:13:47;0.40;;;0.40;;
24137;SDS011;17947;50.672;6.076;2022-10-22T00:16:13;0.50;;;0.50;;
24137;SDS011;17947;50.672;6.076;2022-10-22T00:18:39;0.75;;;0.45;;
24137;SDS011;17947;50.672;6.076;2022-10-22T00:21:05;0.47;;;0.43;;
24137;SDS011;17947;50.672;6.076;2022-10-22T00:23:32;0.70;;;0.50;;
24137;SDS011;17947;50.672;6.076;2022-10-22T00:25:58;0.50;;;0.50;;
24137;SDS011;17947;50.672;6.076;2022-10-22T00:28:24;0.50;;;0.50;;
24137;SDS011;17947;50.672;6.076;2022-10-22T00:30:57;0.40;;;0.40;;
24137;SDS011;17947;50.672;6.076;2022-10-22T00:33:23;0.40;;;0.40;;
24137;SDS011;17947;50.672;6.076;2022-10-22T00:35:50;1.17;;;0.70;;
24137;SDS011;17947;50.672;6.076;2022-10-22T00:38:16;0.50;;;0.50;;
24137;SDS011;17947;50.672;6.076;2022-10-22T00:40:42;0.30;;;0.30;;
24137;SDS011;17947;50.672;6.076;2022-10-22T00:43:09;1.35;;;0.50;;
24137;SDS011;17947;50.672;6.076;2022-10-22T00:45:35;0.45;;;0.45;;
24137;SDS011;17947;50.672;6.076;2022-10-22T00:48:08;0.43;;;0.43;;
24137;SDS011;17947;50.672;6.076;2022-10-22T00:50:39;0.50;;;0.50;;
24137;SDS011;17947;50.672;6.076;2022-10-22T00:53:10;1.08;;;0.68;;
24137;SDS011;17947;50.672;6.076;2022-10-22T00:55:37;0.57;;;0.50;;
24137;SDS011;17947;50.672;6.076;2022-10-22T00:58:04;0.95;;;0.60;;
24137;SDS011;17947;50.672;6.076;2022-10-22T01:00:30;0.43;;;0.43;;
24137;SDS011;17947;50.672;6.076;2022-10-22T01:02:56;0.57;;;0.57;;
24137;SDS011;17947;50.672;6.076;2022-10-22T01:05:25;0.50;;;0.50;;
24137;SDS011;17947;50.672;6.076;2022-10-22T01:07:54;0.55;;;0.55;;
24137;SDS011;17947;50.672;6.076;2022-10-22T01:13:01;0.50;;;0.50;;
24137;SDS011;17947;50.672;6.076;2022-10-22T01:25:36;0.70;;;0.45;;
24137;SDS011;17947;50.672;6.076;2022-10-22T01:28:16;0.82;;;0.52;;
24137;SDS011;17947;50.672;6.076;2022-10-22T01:30:46;0.50;;;0.50;;
24137;SDS011;17947;50.672;6.076;2022-10-22T01:33:14;2.42;;;0.50;;
24137;SDS011;17947;50.672;6.076;2022-10-22T01:35:42;1.13;;;0.50;;
24137;SDS011;17947;50.672;6.076;2022-10-22T01:38:11;0.50;;;0.50;;
24137;SDS011;17947;50.672;6.076;2022-10-22T01:40:37;1.15;;;0.68;;
24137;SDS011;17947;50.672;6.076;2022-10-22T01:43:05;0.40;;;0.40;;
24137;SDS011;17947;50.672;6.076;2022-10-22T01:45:32;0.50;;;0.50;;
24137;SDS011;17947;50.672;6.076;2022-10-22T01:52:57;0.40;;;0.40;;
24137;SDS011;17947;50.672;6.076;2022-10-22T01:57:58;0.40;;;0.40;;
24137;SDS011;17947;50.672;6.076;2022-10-22T02:00:26;0.50;;;0.50;;
24137;SDS011;17947;50.672;6.076;2022-10-22T02:05:40;0.55;;;0.55;;
24137;SDS011;17947;50.672;6.076;2022-10-22T02:08:08;0.52;;;0.52;;
24137;SDS011;17947;50.672;6.076;2022-10-22T02:10:36;0.63;;;0.50;;
24137;SDS011;17947;50.672;6.076;2022-10-22T02:13:02;0.40;;;0.40;;
24137;SDS011;17947;50.672;6.076;2022-10-22T02:15:29;0.50;;;0.50;;
24137;SDS011;17947;50.672;6.076;2022-10-22T02:17:57;0.55;;;0.50;;
24137;SDS011;17947;50.672;6.076;2022-10-22T02:20:26;0.60;;;0.50;;
24137;SDS011;17947;50.672;6.076;2022-10-22T02:22:53;0.43;;;0.43;;
24137;SDS011;17947;50.672;6.076;2022-10-22T02:25:20;0.40;;;0.40;;
24137;SDS011;17947;50.672;6.076;2022-10-22T02:27:58;0.55;;;0.55;;
24137;SDS011;17947;50.672;6.076;2022-10-22T02:30:27;0.50;;;0.50;;
24137;SDS011;17947;50.672;6.076;2022-10-22T02:33:01;0.45;;;0.45;;
24137;SDS011;17947;50.672;6.076;2022-10-22T02:35:29;0.50;;;0.40;;
24137;SDS011;17947;50.672;6.076;2022-10-22T02:37:56;0.60;;;0.60;;
24137;SDS011;17947;50.672;6.076;2022-10-22T02:40:23;0.50;;;0.50;;
24137;SDS011;17947;50.672;6.076;2022-10-22T02:42:49;0.52;;;0.52;;
24137;SDS011;17947;50.672;6.076;2022-10-22T02:45:16;1.00;;;0.50;;
24137;SDS011;17947;50.672;6.076;2022-10-22T02:47:43;0.60;;;0.60;;
24137;SDS011;17947;50.672;6.076;2022-10-22T02:50:09;0.50;;;0.50;;
24137;SDS011;17947;50.672;6.076;2022-10-22T02:52:35;0.47;;;0.47;;
24137;SDS011;17947;50.672;6.076;2022-10-22T02:55:01;0.60;;;0.60;;
24137;SDS011;17947;50.672;6.076;2022-10-22T02:57:27;0.50;;;0.50;;
24137;SDS011;17947;50.672;6.076;2022-10-22T02:59:53;0.40;;;0.40;;
24137;SDS011;17947;50.672;6.076;2022-10-22T03:02:19;0.93;;;0.50;;
24137;SDS011;17947;50.672;6.076;2022-10-22T03:04:45;0.50;;;0.50;;
24137;SDS011;17947;50.672;6.076;2022-10-22T03:07:11;0.50;;;0.50;;
24137;SDS011;17947;50.672;6.076;2022-10-22T03:09:37;0.63;;;0.50;;
24137;SDS011;17947;50.672;6.076;2022-10-22T03:12:03;0.50;;;0.50;;
24137;SDS011;17947;50.672;6.076;2022-10-22T03:14:29;0.50;;;0.50;;
24137;SDS011;17947;50.672;6.076;2022-10-22T03:16:55;0.45;;;0.45;;
24137;SDS011;17947;50.672;6.076;2022-10-22T03:19:21;0.50;;;0.50;;
24137;SDS011;17947;50.672;6.076;2022-10-22T03:21:48;0.55;;;0.55;;
24137;SDS011;17947;50.672;6.076;2022-10-22T03:24:16;0.70;;;0.50;;
24137;SDS011;17947;50.672;6.076;2022-10-22T03:26:42;0.52;;;0.40;;
24137;SDS011;17947;50.672;6.076;2022-10-22T03:29:10;0.68;;;0.50;;
24137;SDS011;17947;50.672;6.076;2022-10-22T03:31:38;0.50;;;0.50;;
24137;SDS011;17947;50.672;6.076;2022-10-22T03:34:04;0.50;;;0.50;;
24137;SDS011;17947;50.672;6.076;2022-10-22T03:36:30;0.65;;;0.50;;
24137;SDS011;17947;50.672;6.076;2022-10-22T03:38:56;0.50;;;0.50;;
24137;SDS011;17947;50.672;6.076;2022-10-22T03:41:23;0.60;;;0.55;;
24137;SDS011;17947;50.672;6.076;2022-10-22T03:43:49;0.80;;;0.50;;
24137;SDS011;17947;50.672;6.076;2022-10-22T03:46:17;0.70;;;0.60;;
24137;SDS011;17947;50.672;6.076;2022-10-22T03:48:43;0.57;;;0.57;;
24137;SDS011;17947;50.672;6.076;2022-10-22T03:51:10;0.98;;;0.50;;
24137;SDS011;17947;50.672;6.076;2022-10-22T03:53:36;0.50;;;0.50;;
24137;SDS011;17947;50.672;6.076;2022-10-22T03:56:06;0.98;;;0.43;;
24137;SDS011;17947;50.672;6.076;2022-10-22T03:58:32;0.43;;;0.43;;
24137;SDS011;17947;50.672;6.076;2022-10-22T04:01:02;0.50;;;0.50;;
24137;SDS011;17947;50.672;6.076;2022-10-22T04:03:28;0.40;;;0.40;;
24137;SDS011;17947;50.672;6.076;2022-10-22T04:05:59;0.60;;;0.60;;
24137;SDS011;17947;50.672;6.076;2022-10-22T04:08:25;0.60;;;0.60;;
24137;SDS011;17947;50.672;6.076;2022-10-22T04:10:51;0.57;;;0.50;;
24137;SDS011;17947;50.672;6.076;2022-10-22T04:13:17;1.02;;;0.50;;
24137;SDS011;17947;50.672;6.076;2022-10-22T04:15:43;0.40;;;0.40;;
24137;SDS011;17947;50.672;6.076;2022-10-22T04:18:09;0.80;;;0.70;;
24137;SDS011;17947;50.672;6.076;2022-10-22T04:20:35;0.57;;;0.57;;
24137;SDS011;17947;50.672;6.076;2022-10-22T04:23:01;0.60;;;0.60;;
24137;SDS011;17947;50.672;6.076;2022-10-22T04:25:27;0.50;;;0.50;;
24137;SDS011;17947;50.672;6.076;2022-10-22T04:27:53;0.60;;;0.60;;
24137;SDS011;17947;50.672;6.076;2022-10-22T04:30:19;0.55;;;0.50;;
24137;SDS011;17947;50.672;6.076;2022-10-22T04:32:45;0.50;;;0.50;;
24137;SDS011;17947;50.672;6.076;2022-10-22T04:35:11;0.60;;;0.60;;
24137;SDS011;17947;50.672;6.076;2022-10-22T04:37:37;0.50;;;0.50;;
24137;SDS011;17947;50.672;6.076;2022-10-22T04:40:03;1.83;;;0.60;;
24137;SDS011;17947;50.672;6.076;2022-10-22T04:42:29;0.40;;;0.40;;
24137;SDS011;17947;50.672;6.076;2022-10-22T04:44:56;0.85;;;0.60;;
24137;SDS011;17947;50.672;6.076;2022-10-22T04:47:22;0.50;;;0.50;;
24137;SDS011;17947;50.672;6.076;2022-10-22T04:49:48;0.82;;;0.55;;
24137;SDS011;17947;50.672;6.076;2022-10-22T04:52:14;1.50;;;0.68;;
24137;SDS011;17947;50.672;6.076;2022-10-22T04:54:39;1.00;;;0.57;;
24137;SDS011;17947;50.672;6.076;2022-10-22T04:57:05;0.52;;;0.52;;
24137;SDS011;17947;50.672;6.076;2022-10-22T04:59:31;0.90;;;0.50;;
24137;SDS011;17947;50.672;6.076;2022-10-22T05:01:57;0.82;;;0.60;;
24137;SDS011;17947;50.672;6.076;2022-10-22T05:04:23;0.75;;;0.50;;
24137;SDS011;17947;50.672;6.076;2022-10-22T05:06:49;0.60;;;0.60;;
24137;SDS011;17947;50.672;6.076;2022-10-22T05:09:16;0.70;;;0.50;;
24137;SDS011;17947;50.672;6.076;2022-10-22T05:11:43;0.45;;;0.45;;
24137;SDS011;17947;50.672;6.076;2022-10-22T05:14:10;0.40;;;0.40;;
24137;SDS011;17947;50.672;6.076;2022-10-22T05:16:36;2.05;;;0.50;;
24137;SDS011;17947;50.672;6.076;2022-10-22T05:19:03;0.60;;;0.60;;
24137;SDS011;17947;50.672;6.076;2022-10-22T05:21:29;0.50;;;0.50;;
24137;SDS011;17947;50.672;6.076;2022-10-22T05:23:56;0.63;;;0.63;;
24137;SDS011;17947;50.672;6.076;2022-10-22T05:26:23;0.73;;;0.60;;
24137;SDS011;17947;50.672;6.076;2022-10-22T05:28:50;0.50;;;0.50;;
24137;SDS011;17947;50.672;6.076;2022-10-22T05:31:16;0.60;;;0.60;;
24137;SDS011;17947;50.672;6.076;2022-10-22T05:33:43;0.70;;;0.60;;
24137;SDS011;17947;50.672;6.076;2022-10-22T05:36:10;0.98;;;0.60;;
24137;SDS011;17947;50.672;6.076;2022-10-22T05:38:37;0.60;;;0.60;;
24137;SDS011;17947;50.672;6.076;2022-10-22T05:41:10;1.13;;;0.50;;
24137;SDS011;17947;50.672;6.076;2022-10-22T05:43:36;0.50;;;0.50;;
24137;SDS011;17947;50.672;6.076;2022-10-22T05:46:12;0.73;;;0.63;;
24137;SDS011;17947;50.672;6.076;2022-10-22T05:48:38;0.65;;;0.60;;
24137;SDS011;17947;50.672;6.076;2022-10-22T05:51:09;0.50;;;0.50;;
24137;SDS011;17947;50.672;6.076;2022-10-22T05:53:36;0.85;;;0.60;;
24137;SDS011;17947;50.672;6.076;2022-10-22T05:56:04;0.57;;;0.57;;
24137;SDS011;17947;50.672;6.076;2022-10-22T05:58:30;0.63;;;0.45;;
24137;SDS011;17947;50.672;6.076;2022-10-22T06:01:00;1.10;;;0.77;;
24137;SDS011;17947;50.672;6.076;2022-10-22T06:03:26;0.60;;;0.60;;
24137;SDS011;17947;50.672;6.076;2022-10-22T06:05:52;0.40;;;0.40;;
24137;SDS011;17947;50.672;6.076;2022-10-22T06:08:19;0.75;;;0.50;;
24137;SDS011;17947;50.672;6.076;2022-10-22T06:10:45;0.43;;;0.40;;
24137;SDS011;17947;50.672;6.076;2022-10-22T06:13:11;0.70;;;0.57;;
24137;SDS011;17947;50.672;6.076;2022-10-22T06:15:37;0.45;;;0.43;;
24137;SDS011;17947;50.672;6.076;2022-10-22T06:18:03;1.27;;;0.65;;
24137;SDS011;17947;50.672;6.076;2022-10-22T06:20:29;0.77;;;0.70;;
24137;SDS011;17947;50.672;6.076;2022-10-22T06:22:55;0.80;;;0.68;;
24137;SDS011;17947;50.672;6.076;2022-10-22T06:25:21;0.77;;;0.60;;
24137;SDS011;17947;50.672;6.076;2022-10-22T06:27:48;1.25;;;0.70;;
24137;SDS011;17947;50.672;6.076;2022-10-22T06:30:15;2.00;;;0.75;;
24137;SDS011;17947;50.672;6.076;2022-10-22T06:32:41;1.00;;;0.70;;
24137;SDS011;17947;50.672;6.076;2022-10-22T06:35:07;1.85;;;0.85;;
24137;SDS011;17947;50.672;6.076;2022-10-22T06:37:33;1.52;;;0.73;;
24137;SDS011;17947;50.672;6.076;2022-10-22T06:39:59;1.90;;;0.80;;
24137;SDS011;17947;50.672;6.076;2022-10-22T06:42:26;1.55;;;0.88;;
24137;SDS011;17947;50.672;6.076;2022-10-22T06:44:52;0.82;;;0.68;;
24137;SDS011;17947;50.672;6.076;2022-10-22T06:47:18;0.63;;;0.52;;
24137;SDS011;17947;50.672;6.076;2022-10-22T06:49:44;0.82;;;0.63;;
24137;SDS011;17947;50.672;6.076;2022-10-22T06:52:10;1.05;;;0.70;;
24137;SDS011;17947;50.672;6.076;2022-10-22T06:54:36;0.60;;;0.60;;
24137;SDS011;17947;50.672;6.076;2022-10-22T06:57:02;1.05;;;0.60;;
24137;SDS011;17947;50.672;6.076;2022-10-22T06:59:28;1.10;;;0.65;;
24137;SDS011;17947;50.672;6.076;2022-10-22T07:01:54;1.17;;;0.85;;
24137;SDS011;17947;50.672;6.076;2022-10-22T07:04:20;1.17;;;0.70;;
24137;SDS011;17947;50.672;6.076;2022-10-22T07:06:46;0.68;;;0.50;;
24137;SDS011;17947;50.672;6.076;2022-10-22T07:09:12;0.93;;;0.70;;
24137;SDS011;17947;50.672;6.076;2022-10-22T07:11:41;2.90;;;0.77;;
24137;SDS011;17947;50.672;6.076;2022-10-22T07:14:08;0.90;;;0.70;;
24137;SDS011;17947;50.672;6.076;2022-10-22T07:16:34;1.10;;;0.70;;
24137;SDS011;17947;50.672;6.076;2022-10-22T07:19:00;1.48;;;0.70;;
24137;SDS011;17947;50.672;6.076;2022-10-22T07:21:27;1.17;;;1.05;;
24137;SDS011;17947;50.672;6.076;2022-10-22T07:23:53;1.55;;;0.70;;
24137;SDS011;17947;50.672;6.076;2022-10-22T07:26:19;1.90;;;0.88;;
24137;SDS011;17947;50.672;6.076;2022-10-22T07:28:45;1.70;;;0.70;;
24137;SDS011;17947;50.672;6.076;2022-10-22T07:31:13;2.08;;;0.70;;
24137;SDS011;17947;50.672;6.076;2022-10-22T07:33:40;1.42;;;0.60;;
24137;SDS011;17947;50.672;6.076;2022-10-22T07:36:07;1.63;;;1.08;;
24137;SDS011;17947;50.672;6.076;2022-10-22T07:38:36;1.52;;;0.80;;
24137;SDS011;17947;50.672;6.076;2022-10-22T07:41:02;2.55;;;0.80;;
24137;SDS011;17947;50.672;6.076;2022-10-22T07:43:31;1.30;;;0.70;;
24137;SDS011;17947;50.672;6.076;2022-10-22T07:45:57;0.93;;;0.60;;
24137;SDS011;17947;50.672;6.076;2022-10-22T07:48:25;1.10;;;0.70;;
24137;SDS011;17947;50.672;6.076;2022-10-22T07:50:51;1.08;;;0.70;;
24137;SDS011;17947;50.672;6.076;2022-10-22T07:53:17;0.77;;;0.70;;
24137;SDS011;17947;50.672;6.076;2022-10-22T07:55:46;1.63;;;0.82;;
24137;SDS011;17947;50.672;6.076;2022-10-22T07:58:12;1.80;;;0.90;;
24137;SDS011;17947;50.672;6.076;2022-10-22T08:00:38;1.50;;;0.70;;
24137;SDS011;17947;50.672;6.076;2022-10-22T08:03:04;1.48;;;0.75;;
24137;SDS011;17947;50.672;6.076;2022-10-22T08:05:30;2.33;;;0.88;;
24137;SDS011;17947;50.672;6.076;2022-10-22T08:07:56;1.40;;;0.70;;
24137;SDS011;17947;50.672;6.076;2022-10-22T08:10:22;0.98;;;0.80;;
24137;SDS011;17947;50.672;6.076;2022-10-22T08:12:48;1.50;;;0.80;;
24137;SDS011;17947;50.672;6.076;2022-10-22T08:15:14;1.50;;;0.80;;
24137;SDS011;17947;50.672;6.076;2022-10-22T08:17:40;1.67;;;0.70;;
24137;SDS011;17947;50.672;6.076;2022-10-22T08:20:06;2.05;;;0.80;;
24137;SDS011;17947;50.672;6.076;2022-10-22T08:22:32;1.55;;;0.60;;
24137;SDS011;17947;50.672;6.076;2022-10-22T08:24:58;1.23;;;0.80;;
24137;SDS011;17947;50.672;6.076;2022-10-22T08:27:24;1.20;;;0.70;;
24137;SDS011;17947;50.672;6.076;2022-10-22T08:29:50;0.57;;;0.50;;
24137;SDS011;17947;50.672;6.076;2022-10-22T08:32:16;1.73;;;0.68;;
24137;SDS011;17947;50.672;6.076;2022-10-22T08:34:42;1.95;;;0.82;;
24137;SDS011;17947;50.672;6.076;2022-10-22T08:37:08;2.78;;;0.70;;
24137;SDS011;17947;50.672;6.076;2022-10-22T08:39:38;1.27;;;0.80;;
24137;SDS011;17947;50.672;6.076;2022-10-22T08:49:38;1.20;;;0.68;;
24137;SDS011;17947;50.672;6.076;2022-10-22T08:52:07;2.50;;;0.80;;
24137;SDS011;17947;50.672;6.076;2022-10-22T09:02:02;1.08;;;0.73;;
24137;SDS011;17947;50.672;6.076;2022-10-22T09:04:36;2.97;;;0.75;;
24137;SDS011;17947;50.672;6.076;2022-10-22T09:07:07;0.90;;;0.70;;
24137;SDS011;17947;50.672;6.076;2022-10-22T09:09:35;1.30;;;0.75;;
24137;SDS011;17947;50.672;6.076;2022-10-22T09:12:03;2.05;;;0.70;;
24137;SDS011;17947;50.672;6.076;2022-10-22T09:14:31;1.05;;;0.70;;
24137;SDS011;17947;50.672;6.076;2022-10-22T09:17:03;1.38;;;0.68;;
24137;SDS011;17947;50.672;6.076;2022-10-22T09:24:31;1.75;;;0.80;;
24137;SDS011;17947;50.672;6.076;2022-10-22T09:26:59;0.60;;;0.60;;
24137;SDS011;17947;50.672;6.076;2022-10-22T09:29:30;1.20;;;0.68;;
24137;SDS011;17947;50.672;6.076;2022-10-22T09:31:57;1.25;;;0.80;;
24137;SDS011;17947;50.672;6.076;2022-10-22T09:34:23;1.65;;;0.70;;
24137;SDS011;17947;50.672;6.076;2022-10-22T09:36:56;1.50;;;0.70;;
24137;SDS011;17947;50.672;6.076;2022-10-22T09:39:26;0.70;;;0.70;;
24137;SDS011;17947;50.672;6.076;2022-10-22T09:41:52;0.88;;;0.60;;
24137;SDS011;17947;50.672;6.076;2022-10-22T09:44:19;0.98;;;0.57;;
24137;SDS011;17947;50.672;6.076;2022-10-22T09:46:45;2.22;;;0.63;;
24137;SDS011;17947;50.672;6.076;2022-10-22T09:49:15;2.50;;;0.88;;
24137;SDS011;17947;50.672;6.076;2022-10-22T09:51:49;1.52;;;0.70;;
24137;SDS011;17947;50.672;6.076;2022-10-22T09:57:04;1.67;;;0.63;;
24137;SDS011;17947;50.672;6.076;2022-10-22T09:59:36;1.23;;;0.80;;
24137;SDS011;17947;50.672;6.076;2022-10-22T10:02:11;2.28;;;0.85;;
24137;SDS011;17947;50.672;6.076;2022-10-22T10:04:41;1.95;;;0.77;;
24137;SDS011;17947;50.672;6.076;2022-10-22T10:07:18;3.45;;;0.88;;
24137;SDS011;17947;50.672;6.076;2022-10-22T10:09:45;4.10;;;1.00;;
24137;SDS011;17947;50.672;6.076;2022-10-22T10:17:42;4.50;;;1.00;;
24137;SDS011;17947;50.672;6.076;2022-10-22T10:25:32;3.13;;;0.88;;
24137;SDS011;17947;50.672;6.076;2022-10-22T10:38:37;4.93;;;0.90;;
24137;SDS011;17947;50.672;6.076;2022-10-22T10:41:16;1.60;;;0.70;;
24137;SDS011;17947;50.672;6.076;2022-10-22T10:46:21;2.78;;;0.70;;
24137;SDS011;17947;50.672;6.076;2022-10-22T10:48:54;2.50;;;0.82;;
24137;SDS011;17947;50.672;6.076;2022-10-22T10:51:30;1.50;;;0.73;;
24137;SDS011;17947;50.672;6.076;2022-10-22T10:56:47;2.60;;;0.82;;
24137;SDS011;17947;50.672;6.076;2022-10-22T10:59:25;3.05;;;1.00;;
24137;SDS011;17947;50.672;6.076;2022-10-22T11:07:03;2.53;;;0.98;;
24137;SDS011;17947;50.672;6.076;2022-10-22T11:09:35;1.95;;;0.75;;
24137;SDS011;17947;50.672;6.076;2022-10-22T11:12:03;2.13;;;0.75;;
24137;SDS011;17947;50.672;6.076;2022-10-22T11:14:31;1.80;;;1.00;;
24137;SDS011;17947;50.672;6.076;2022-10-22T11:19:40;3.25;;;0.80;;
24137;SDS011;17947;50.672;6.076;2022-10-22T11:22:09;1.80;;;0.60;;
24137;SDS011;17947;50.672;6.076;2022-10-22T11:27:24;1.40;;;0.80;;
24137;SDS011;17947;50.672;6.076;2022-10-22T11:29:55;1.13;;;0.60;;
24137;SDS011;17947;50.672;6.076;2022-10-22T11:32:23;2.33;;;0.63;;
24137;SDS011;17947;50.672;6.076;2022-10-22T11:34:55;1.90;;;0.63;;
24137;SDS011;17947;50.672;6.076;2022-10-22T11:37:21;2.67;;;0.65;;
24137;SDS011;17947;50.672;6.076;2022-10-22T11:39:51;1.83;;;0.85;;
24137;SDS011;17947;50.672;6.076;2022-10-22T11:42:22;2.35;;;0.65;;
24137;SDS011;17947;50.672;6.076;2022-10-22T11:44:59;2.00;;;0.85;;
24137;SDS011;17947;50.672;6.076;2022-10-22T11:47:27;1.38;;;0.70;;
24137;SDS011;17947;50.672;6.076;2022-10-22T11:49:54;3.70;;;0.85;;
24137;SDS011;17947;50.672;6.076;2022-10-22T11:52:22;1.35;;;0.73;;
24137;SDS011;17947;50.672;6.076;2022-10-22T11:54:52;4.65;;;1.05;;
24137;SDS011;17947;50.672;6.076;2022-10-22T11:57:20;2.28;;;0.90;;
24137;SDS011;17947;50.672;6.076;2022-10-22T11:59:52;0.98;;;0.70;;
24137;SDS011;17947;50.672;6.076;2022-10-22T12:04:48;1.50;;;0.82;;
24137;SDS011;17947;50.672;6.076;2022-10-22T12:07:33;2.65;;;0.90;;
24137;SDS011;17947;50.672;6.076;2022-10-22T12:09:59;2.03;;;0.70;;
24137;SDS011;17947;50.672;6.076;2022-10-22T12:12:33;2.03;;;0.77;;
24137;SDS011;17947;50.672;6.076;2022-10-22T12:15:00;0.98;;;0.70;;
24137;SDS011;17947;50.672;6.076;2022-10-22T12:17:26;1.77;;;0.80;;
24137;SDS011;17947;50.672;6.076;2022-10-22T12:19:59;1.77;;;0.70;;
24137;SDS011;17947;50.672;6.076;2022-10-22T12:22:26;2.50;;;0.90;;
24137;SDS011;17947;50.672;6.076;2022-10-22T12:24:53;1.33;;;0.88;;
24137;SDS011;17947;50.672;6.076;2022-10-22T12:27:32;1.95;;;0.80;;
24137;SDS011;17947;50.672;6.076;2022-10-22T12:30:00;2.03;;;0.90;;
24137;SDS011;17947;50.672;6.076;2022-10-22T12:32:36;1.52;;;0.70;;
24137;SDS011;17947;50.672;6.076;2022-10-22T12:35:10;1.58;;;0.75;;
24137;SDS011;17947;50.672;6.076;2022-10-22T12:37:36;2.35;;;0.93;;
24137;SDS011;17947;50.672;6.076;2022-10-22T12:40:36;4.38;;;1.00;;
24137;SDS011;17947;50.672;6.076;2022-10-22T12:42:56;3.13;;;0.70;;
24137;SDS011;17947;50.672;6.076;2022-10-22T12:45:25;3.03;;;1.27;;
24137;SDS011;17947;50.672;6.076;2022-10-22T12:47:54;3.88;;;1.30;;
24137;SDS011;17947;50.672;6.076;2022-10-22T12:50:22;1.30;;;0.90;;
24137;SDS011;17947;50.672;6.076;2022-10-22T12:52:50;3.38;;;1.35;;
24137;SDS011;17947;50.672;6.076;2022-10-22T12:55:20;2.95;;;0.90;;
24137;SDS011;17947;50.672;6.076;2022-10-22T12:57:47;2.80;;;1.00;;
24137;SDS011;17947;50.672;6.076;2022-10-22T13:00:23;1.70;;;1.00;;
24137;SDS011;17947;50.672;6.076;2022-10-22T13:02:50;3.78;;;1.00;;
24137;SDS011;17947;50.672;6.076;2022-10-22T13:07:45;3.17;;;0.82;;
24137;SDS011;17947;50.672;6.076;2022-10-22T13:10:25;4.57;;;1.17;;
24137;SDS011;17947;50.672;6.076;2022-10-22T13:12:55;2.05;;;1.10;;
24137;SDS011;17947;50.672;6.076;2022-10-22T13:15:31;4.57;;;0.90;;
24137;SDS011;17947;50.672;6.076;2022-10-22T13:18:17;5.53;;;1.23;;
24137;SDS011;17947;50.672;6.076;2022-10-22T13:23:21;3.58;;;1.08;;
24137;SDS011;17947;50.672;6.076;2022-10-22T13:28:24;88.72;;;11.32;;
24137;SDS011;17947;50.672;6.076;2022-10-22T13:30:57;51.53;;;7.10;;
24137;SDS011;17947;50.672;6.076;2022-10-22T13:33:33;66.93;;;9.30;;
24137;SDS011;17947;50.672;6.076;2022-10-22T13:36:00;44.75;;;8.88;;
24137;SDS011;17947;50.672;6.076;2022-10-22T13:38:27;63.47;;;9.70;;
24137;SDS011;17947;50.672;6.076;2022-10-22T13:40:56;45.78;;;9.05;;
24137;SDS011;17947;50.672;6.076;2022-10-22T13:43:23;43.45;;;8.75;;
24137;SDS011;17947;50.672;6.076;2022-10-22T13:45:53;41.40;;;6.43;;
24137;SDS011;17947;50.672;6.076;2022-10-22T13:48:20;41.30;;;6.53;;
24137;SDS011;17947;50.672;6.076;2022-10-22T13:50:48;31.92;;;5.50;;
24137;SDS011;17947;50.672;6.076;2022-10-22T13:53:15;32.45;;;6.03;;
24137;SDS011;17947;50.672;6.076;2022-10-22T13:55:42;30.45;;;5.93;;
24137;SDS011;17947;50.672;6.076;2022-10-22T13:58:10;29.92;;;7.13;;
24137;SDS011;17947;50.672;6.076;2022-10-22T14:00:37;36.83;;;7.38;;
24137;SDS011;17947;50.672;6.076;2022-10-22T14:03:04;34.90;;;7.07;;
24137;SDS011;17947;50.672;6.076;2022-10-22T14:05:30;35.20;;;6.90;;
24137;SDS011;17947;50.672;6.076;2022-10-22T14:08:00;37.03;;;7.97;;
24137;SDS011;17947;50.672;6.076;2022-10-22T14:10:26;40.78;;;8.27;;
24137;SDS011;17947;50.672;6.076;2022-10-22T14:12:52;37.15;;;8.77;;
24137;SDS011;17947;50.672;6.076;2022-10-22T14:15:19;28.05;;;8.02;;
24137;SDS011;17947;50.672;6.076;2022-10-22T14:17:52;24.55;;;6.78;;
24137;SDS011;17947;50.672;6.076;2022-10-22T14:20:19;31.75;;;8.13;;
24137;SDS011;17947;50.672;6.076;2022-10-22T14:22:46;26.92;;;8.35;;
24137;SDS011;17947;50.672;6.076;2022-10-22T14:25:16;29.13;;;7.30;;
24137;SDS011;17947;50.672;6.076;2022-10-22T14:27:44;27.02;;;7.15;;
24137;SDS011;17947;50.672;6.076;2022-10-22T14:30:29;28.70;;;6.95;;
24137;SDS011;17947;50.672;6.076;2022-10-22T14:32:57;28.95;;;7.20;;
24137;SDS011;17947;50.672;6.076;2022-10-22T14:35:23;27.08;;;7.07;;
24137;SDS011;17947;50.672;6.076;2022-10-22T14:37:49;26.35;;;8.35;;
24137;SDS011;17947;50.672;6.076;2022-10-22T14:40:17;30.25;;;9.70;;
24137;SDS011;17947;50.672;6.076;2022-10-22T14:42:44;37.92;;;9.27;;
24137;SDS011;17947;50.672;6.076;2022-10-22T14:47:43;32.50;;;8.70;;
24137;SDS011;17947;50.672;6.076;2022-10-22T14:50:09;23.25;;;7.90;;
24137;SDS011;17947;50.672;6.076;2022-10-22T14:52:35;28.55;;;8.55;;
24137;SDS011;17947;50.672;6.076;2022-10-22T14:55:01;28.30;;;7.82;;
24137;SDS011;17947;50.672;6.076;2022-10-22T14:57:27;24.05;;;8.25;;
24137;SDS011;17947;50.672;6.076;2022-10-22T14:59:53;25.92;;;7.80;;
24137;SDS011;17947;50.672;6.076;2022-10-22T15:02:20;27.75;;;8.32;;
24137;SDS011;17947;50.672;6.076;2022-10-22T15:04:47;25.83;;;7.57;;
24137;SDS011;17947;50.672;6.076;2022-10-22T15:07:13;23.40;;;7.30;;
24137;SDS011;17947;50.672;6.076;2022-10-22T15:09:39;23.10;;;7.50;;
24137;SDS011;17947;50.672;6.076;2022-10-22T15:12:05;21.80;;;7.95;;
24137;SDS011;17947;50.672;6.076;2022-10-22T15:14:32;19.65;;;7.13;;
24137;SDS011;17947;50.672;6.076;2022-10-22T15:16:58;22.45;;;7.13;;
24137;SDS011;17947;50.672;6.076;2022-10-22T15:19:25;18.63;;;7.03;;
24137;SDS011;17947;50.672;6.076;2022-10-22T15:21:51;17.48;;;5.47;;
24137;SDS011;17947;50.672;6.076;2022-10-22T15:24:19;14.48;;;5.22;;
24137;SDS011;17947;50.672;6.076;2022-10-22T15:26:45;17.05;;;5.40;;
24137;SDS011;17947;50.672;6.076;2022-10-22T15:29:11;12.05;;;4.70;;
24137;SDS011;17947;50.672;6.076;2022-10-22T15:31:50;14.02;;;4.85;;
24137;SDS011;17947;50.672;6.076;2022-10-22T15:34:20;12.95;;;5.07;;
24137;SDS011;17947;50.672;6.076;2022-10-22T15:36:47;12.32;;;4.55;;
24137;SDS011;17947;50.672;6.076;2022-10-22T15:39:13;16.95;;;4.78;;
24137;SDS011;17947;50.672;6.076;2022-10-22T15:41:39;13.05;;;4.30;;
24137;SDS011;17947;50.672;6.076;2022-10-22T15:44:05;12.70;;;4.75;;
24137;SDS011;17947;50.672;6.076;2022-10-22T15:46:32;11.95;;;4.90;;
24137;SDS011;17947;50.672;6.076;2022-10-22T15:48:58;13.82;;;4.43;;
24137;SDS011;17947;50.672;6.076;2022-10-22T15:51:26;12.25;;;4.60;;
24137;SDS011;17947;50.672;6.076;2022-10-22T15:53:53;15.52;;;4.90;;
24137;SDS011;17947;50.672;6.076;2022-10-22T15:56:21;10.05;;;4.38;;
24137;SDS011;17947;50.672;6.076;2022-10-22T15:58:50;10.50;;;4.53;;
24137;SDS011;17947;50.672;6.076;2022-10-22T16:01:17;9.23;;;4.22;;
24137;SDS011;17947;50.672;6.076;2022-10-22T16:03:43;11.52;;;4.30;;
24137;SDS011;17947;50.672;6.076;2022-10-22T16:06:28;10.38;;;4.05;;
24137;SDS011;17947;50.672;6.076;2022-10-22T16:08:58;11.93;;;5.18;;
24137;SDS011;17947;50.672;6.076;2022-10-22T16:11:24;11.52;;;4.32;;
24137;SDS011;17947;50.672;6.076;2022-10-22T16:13:54;11.80;;;4.45;;
24137;SDS011;17947;50.672;6.076;2022-10-22T16:16:24;7.38;;;3.80;;
24137;SDS011;17947;50.672;6.076;2022-10-22T16:18:50;9.77;;;3.80;;
24137;SDS011;17947;50.672;6.076;2022-10-22T16:21:17;8.85;;;3.60;;
24137;SDS011;17947;50.672;6.076;2022-10-22T16:23:43;8.45;;;3.97;;
24137;SDS011;17947;50.672;6.076;2022-10-22T16:26:09;8.82;;;4.28;;